Time;durP1;ratioP1;P1;durP2;ratioP2;P2;SDS_P1;SDS_P2;PMS_P1;PMS_P2;Temp;Humidity;BMP_temperature;BMP_pressure;BME280_temperature;BME280_humidity;BME280_pressure;Samples;Min_cycle;Max_cycle;Signal;HPM_P1;HPM_P2
2023/02/23 00:01:37;;;;;;;19.77;10.30;;;7.30;97.70;;;;;;4971303;28;20154;-68
2023/02/23 00:04:03;;;;;;;21.83;10.45;;;7.30;97.80;;;;;;4968270;28;20034;-68
2023/02/23 00:06:31;;;;;;;18.85;10.05;;;7.30;97.90;;;;;;4971603;28;20475;-68
2023/02/23 00:08:59;;;;;;;19.70;10.60;;;7.40;97.90;;;;;;4966074;28;20030;-67
2023/02/23 00:11:26;;;;;;;19.80;10.80;;;7.30;97.90;;;;;;4954065;28;20035;-67
2023/02/23 00:13:55;;;;;;;21.10;10.40;;;7.30;97.90;;;;;;4949383;28;20031;-69
2023/02/23 00:16:23;;;;;;;27.23;11.70;;;7.30;98.00;;;;;;4970404;28;20096;-67
2023/02/23 00:19:01;;;;;;;20.27;10.48;;;7.30;98.00;;;;;;4966377;28;20081;-67
2023/02/23 00:21:31;;;;;;;17.73;11.15;;;7.30;98.10;;;;;;4973183;28;20046;-69
2023/02/23 00:24:01;;;;;;;20.17;11.20;;;7.30;98.00;;;;;;4966275;28;20495;-68
2023/02/23 00:26:30;;;;;;;20.73;10.00;;;7.30;98.00;;;;;;4956319;28;20106;-68
2023/02/23 00:28:59;;;;;;;24.90;10.90;;;7.30;98.00;;;;;;4969180;28;20027;-69
2023/02/23 00:31:29;;;;;;;22.38;11.18;;;7.20;98.00;;;;;;4973226;28;20569;-68
2023/02/23 00:33:57;;;;;;;23.08;12.02;;;7.30;98.10;;;;;;4972818;28;20379;-68
2023/02/23 00:36:28;;;;;;;25.10;11.10;;;7.20;98.10;;;;;;4956665;28;20034;-68
2023/02/23 00:38:55;;;;;;;20.05;10.63;;;7.20;98.10;;;;;;4967037;28;20399;-68
2023/02/23 00:41:24;;;;;;;18.95;10.35;;;7.30;98.20;;;;;;4956734;28;20039;-67
2023/02/23 00:43:53;;;;;;;18.48;11.32;;;7.20;98.20;;;;;;4964640;28;20111;-68
2023/02/23 00:46:21;;;;;;;19.23;10.93;;;7.20;98.20;;;;;;4974240;28;20045;-68
2023/02/23 00:48:50;;;;;;;20.52;11.20;;;7.20;98.20;;;;;;4956070;28;20081;-68
2023/02/23 00:51:17;;;;;;;27.27;11.70;;;7.20;98.20;;;;;;4972134;28;20035;-66
2023/02/23 00:53:43;;;;;;;18.15;9.80;;;7.20;98.20;;;;;;4951756;28;20047;-67
2023/02/23 00:56:11;;;;;;;22.38;11.25;;;7.20;98.20;;;;;;4954142;28;20028;-68
2023/02/23 00:58:38;;;;;;;26.08;11.07;;;7.10;98.20;;;;;;4953409;28;20077;-68
2023/02/23 01:01:11;;;;;;;22.70;11.82;;;7.20;98.30;;;;;;4937918;28;20098;-68
2023/02/23 01:03:39;;;;;;;22.60;11.40;;;7.10;98.30;;;;;;4940692;28;20023;-67
2023/02/23 01:06:06;;;;;;;24.63;11.75;;;7.10;98.30;;;;;;4952263;29;20065;-66
2023/02/23 01:08:33;;;;;;;23.25;10.90;;;7.10;98.30;;;;;;4949850;28;20030;-68
2023/02/23 01:11:08;;;;;;;23.33;11.88;;;7.10;98.30;;;;;;4953854;28;20031;-67
2023/02/23 01:13:35;;;;;;;26.42;12.30;;;7.10;98.40;;;;;;4942077;28;20031;-66
2023/02/23 01:16:05;;;;;;;21.40;11.07;;;7.00;98.40;;;;;;4952722;28;20110;-67
2023/02/23 01:18:33;;;;;;;23.33;12.05;;;7.00;98.50;;;;;;4941817;28;20058;-66
2023/02/23 01:20:59;;;;;;;31.15;12.05;;;7.00;98.60;;;;;;4953327;28;20046;-66
2023/02/23 01:23:25;;;;;;;19.83;12.27;;;6.90;98.50;;;;;;4946667;28;20031;-66
2023/02/23 01:25:50;;;;;;;22.27;11.57;;;7.00;98.50;;;;;;4952101;28;20483;-67
2023/02/23 01:28:16;;;;;;;20.38;10.93;;;6.90;98.60;;;;;;4942617;28;20019;-67
2023/02/23 01:30:41;;;;;;;20.45;10.57;;;7.00;98.60;;;;;;4953440;29;20031;-66
2023/02/23 01:33:08;;;;;;;23.20;12.40;;;7.00;98.60;;;;;;4940648;28;20035;-67
2023/02/23 01:35:33;;;;;;;21.02;11.80;;;6.90;98.60;;;;;;4943706;29;20063;-66
2023/02/23 01:37:59;;;;;;;20.48;11.73;;;7.00;98.60;;;;;;4949249;28;20065;-67
2023/02/23 01:40:29;;;;;;;23.52;12.18;;;7.00;98.60;;;;;;4953051;29;20388;-67
2023/02/23 01:43:05;;;;;;;18.27;12.35;;;7.00;98.70;;;;;;4951786;28;20034;-66
2023/02/23 01:45:34;;;;;;;19.73;10.88;;;7.00;98.70;;;;;;4947525;28;20086;-66
2023/02/23 01:48:06;;;;;;;30.05;12.85;;;7.00;98.70;;;;;;4944046;28;20031;-67
2023/02/23 01:51:00;;;;;;;18.70;10.82;;;6.90;98.70;;;;;;4952956;28;20039;-67
2023/02/23 01:53:28;;;;;;;24.50;11.48;;;6.90;98.70;;;;;;4960465;28;20056;-67
2023/02/23 01:56:17;;;;;;;23.23;13.15;;;6.90;98.70;;;;;;4972959;28;20038;-68
2023/02/23 01:58:53;;;;;;;23.33;11.13;;;6.90;98.70;;;;;;4970576;28;20027;-68
2023/02/23 02:01:20;;;;;;;21.95;11.95;;;6.90;98.70;;;;;;4971832;28;20209;-68
2023/02/23 02:03:57;;;;;;;22.90;12.68;;;6.90;98.70;;;;;;4957694;28;20032;-68
2023/02/23 02:06:27;;;;;;;26.63;12.20;;;6.90;98.70;;;;;;4971094;28;20459;-68
2023/02/23 02:09:09;;;;;;;23.40;12.68;;;6.90;98.70;;;;;;4970957;28;20023;-68
2023/02/23 02:11:36;;;;;;;23.58;12.00;;;6.90;98.70;;;;;;4960860;28;20037;-68
2023/02/23 02:14:04;;;;;;;20.30;12.23;;;6.80;98.70;;;;;;4965677;28;20097;-68
2023/02/23 02:16:41;;;;;;;26.42;11.68;;;6.90;98.70;;;;;;4970723;28;20058;-68
2023/02/23 02:19:21;;;;;;;23.20;12.40;;;6.90;98.80;;;;;;4971571;28;20372;-68
2023/02/23 02:22:00;;;;;;;23.15;12.43;;;6.90;98.80;;;;;;4969957;28;20031;-67
2023/02/23 02:24:46;;;;;;;26.00;12.60;;;6.90;98.80;;;;;;4969203;28;20026;-66
2023/02/23 02:27:42;;;;;;;19.55;11.30;;;6.80;98.70;;;;;;4970680;28;20027;-67
2023/02/23 02:30:45;;;;;;;21.58;12.85;;;6.80;98.80;;;;;;4955090;28;20390;-67
2023/02/23 02:33:25;;;;;;;23.33;12.93;;;6.80;98.90;;;;;;4966597;28;20034;-67
2023/02/23 02:36:28;;;;;;;23.52;11.30;;;6.80;98.80;;;;;;4954729;28;20024;-67
2023/02/23 02:39:09;;;;;;;25.80;13.25;;;6.80;98.80;;;;;;4954300;28;20126;-67
2023/02/23 02:41:59;;;;;;;25.23;13.05;;;6.80;98.80;;;;;;4963481;28;20474;-67
2023/02/23 02:44:40;;;;;;;24.70;14.07;;;6.80;98.90;;;;;;4956476;28;20492;-67
2023/02/23 02:47:21;;;;;;;25.65;12.18;;;6.70;98.90;;;;;;4952474;28;20090;-67
2023/02/23 02:49:54;;;;;;;24.73;12.35;;;6.70;98.90;;;;;;4970673;28;20546;-67
2023/02/23 02:52:28;;;;;;;19.60;12.07;;;6.70;98.90;;;;;;4950303;28;20055;-67
2023/02/23 02:55:22;;;;;;;27.80;13.90;;;6.70;98.90;;;;;;4942575;28;20024;-66
2023/02/23 02:57:50;;;;;;;22.63;12.32;;;6.70;98.90;;;;;;4949837;28;20036;-67
2023/02/23 04:18:05;;;;;;;26.50;12.85;;;6.50;99.20;;;;;;4965008;28;20085;-68
2023/02/23 04:20:34;;;;;;;27.58;13.70;;;6.40;99.20;;;;;;4969684;28;20031;-67
2023/02/23 04:22:59;;;;;;;26.77;13.40;;;6.40;99.20;;;;;;4960705;28;20114;-67
2023/02/23 04:25:25;;;;;;;24.83;13.45;;;6.40;99.20;;;;;;4970372;28;20121;-67
2023/02/23 04:27:51;;;;;;;25.42;14.38;;;6.40;99.20;;;;;;4965964;28;20034;-67
2023/02/23 04:30:17;;;;;;;28.25;15.13;;;6.40;99.20;;;;;;4969467;28;20054;-67
2023/02/23 04:32:44;;;;;;;28.05;14.23;;;6.40;99.20;;;;;;4959884;28;20027;-67
2023/02/23 04:35:12;;;;;;;31.70;14.65;;;6.40;99.30;;;;;;4945045;28;20038;-67
2023/02/23 04:37:37;;;;;;;26.42;15.10;;;6.40;99.30;;;;;;4969081;28;20034;-68
2023/02/23 04:40:04;;;;;;;28.17;14.65;;;6.40;99.30;;;;;;4969558;28;20051;-67
2023/02/23 04:42:30;;;;;;;28.67;13.82;;;6.30;99.30;;;;;;4957009;28;20126;-68
2023/02/23 04:44:55;;;;;;;23.77;14.70;;;6.30;99.30;;;;;;4969062;28;20031;-67
2023/02/23 04:47:21;;;;;;;25.35;13.55;;;6.30;99.30;;;;;;4971330;28;20121;-67
2023/02/23 04:49:47;;;;;;;27.90;14.90;;;6.20;99.40;;;;;;4951291;28;20101;-68
2023/02/23 04:52:12;;;;;;;26.05;14.50;;;6.20;99.40;;;;;;4970868;28;20031;-67
2023/02/23 04:54:38;;;;;;;28.55;15.32;;;6.20;99.40;;;;;;4968062;28;20026;-67
2023/02/23 04:57:05;;;;;;;26.48;14.82;;;6.20;99.40;;;;;;4956182;28;20426;-67
2023/02/23 04:59:31;;;;;;;28.42;13.93;;;6.20;99.40;;;;;;4962658;28;20030;-66
2023/02/23 05:01:56;;;;;;;23.60;13.40;;;6.20;99.50;;;;;;4955949;28;20493;-67
2023/02/23 05:04:22;;;;;;;27.23;14.40;;;6.20;99.50;;;;;;4961726;28;20105;-67
2023/02/23 05:06:48;;;;;;;29.33;14.13;;;6.20;99.50;;;;;;4971648;28;20023;-67
2023/02/23 05:09:14;;;;;;;29.58;13.82;;;6.10;99.50;;;;;;4955378;28;20054;-67
2023/02/23 05:11:39;;;;;;;27.50;14.75;;;6.10;99.50;;;;;;4972804;28;20037;-68
2023/02/23 05:14:05;;;;;;;24.23;13.65;;;6.10;99.50;;;;;;4970076;28;20031;-68
2023/02/23 05:16:31;;;;;;;26.90;14.18;;;6.10;99.50;;;;;;4969760;28;20031;-67
2023/02/23 05:18:57;;;;;;;25.42;14.10;;;6.00;99.50;;;;;;4943157;28;20031;-67
2023/02/23 05:21:22;;;;;;;26.92;13.63;;;6.00;99.50;;;;;;4964520;28;20030;-68
2023/02/23 05:23:48;;;;;;;27.35;13.77;;;6.00;99.60;;;;;;4972229;28;20446;-67
2023/02/23 05:26:14;;;;;;;27.98;13.93;;;6.00;99.60;;;;;;4972154;28;20023;-67
2023/02/23 05:28:41;;;;;;;27.95;13.50;;;6.00;99.60;;;;;;4970725;28;20122;-67
2023/02/23 05:31:07;;;;;;;27.73;13.77;;;6.00;99.60;;;;;;4970007;28;20062;-67
2023/02/23 05:33:34;;;;;;;26.73;14.02;;;5.90;99.60;;;;;;4946232;28;20023;-68
2023/02/23 05:36:03;;;;;;;22.77;13.10;;;5.90;99.80;;;;;;4956378;28;20072;-68
2023/02/23 05:38:29;;;;;;;25.92;14.05;;;5.90;99.60;;;;;;4971130;28;20497;-68
2023/02/23 05:40:55;;;;;;;24.80;14.18;;;5.80;99.60;;;;;;4972173;28;20051;-68
2023/02/23 05:43:20;;;;;;;27.52;13.98;;;5.80;99.70;;;;;;4971942;28;20049;-69
2023/02/23 05:45:46;;;;;;;23.45;12.93;;;5.80;99.70;;;;;;4971685;28;20492;-67
2023/02/23 05:48:12;;;;;;;26.52;13.45;;;5.80;99.70;;;;;;4971450;28;20039;-68
2023/02/23 05:50:37;;;;;;;26.65;13.93;;;5.80;99.70;;;;;;4954615;28;20026;-68
2023/02/23 05:53:03;;;;;;;25.98;14.35;;;5.80;99.70;;;;;;4965588;28;20051;-68
2023/02/23 05:55:29;;;;;;;23.63;12.95;;;5.80;99.70;;;;;;4972006;28;20609;-68
2023/02/23 05:57:55;;;;;;;26.13;13.88;;;5.80;99.80;;;;;;4966858;28;20055;-69
2023/02/23 06:00:21;;;;;;;29.20;13.95;;;5.80;99.80;;;;;;4964119;28;20662;-67
2023/02/23 06:02:48;;;;;;;32.50;14.65;;;5.80;99.70;;;;;;4968893;28;20055;-67
2023/02/23 06:05:14;;;;;;;27.58;14.07;;;5.80;99.70;;;;;;4964103;28;20034;-67
2023/02/23 06:07:40;;;;;;;26.23;12.85;;;5.70;99.80;;;;;;4964766;28;20110;-67
2023/02/23 06:10:06;;;;;;;25.50;13.02;;;5.70;99.80;;;;;;4964192;28;20474;-67
2023/02/23 06:12:32;;;;;;;22.20;13.38;;;5.70;99.80;;;;;;4971035;28;20038;-67
2023/02/23 06:14:57;;;;;;;22.27;13.80;;;5.70;99.80;;;;;;4962196;28;20038;-67
2023/02/23 06:17:23;;;;;;;26.27;13.38;;;5.70;99.80;;;;;;4970707;28;20046;-68
2023/02/23 06:19:49;;;;;;;25.88;13.73;;;5.80;99.90;;;;;;4964707;28;20043;-68
2023/02/23 06:22:16;;;;;;;23.15;13.30;;;5.70;99.90;;;;;;4958256;28;20030;-68
2023/02/23 06:24:42;;;;;;;27.35;15.05;;;5.70;99.90;;;;;;4970758;28;20443;-67
2023/02/23 06:27:08;;;;;;;28.23;13.63;;;5.70;99.90;;;;;;4972407;28;20118;-67
2023/02/23 06:29:33;;;;;;;25.20;14.05;;;5.70;99.90;;;;;;4967688;28;20117;-68
2023/02/23 06:31:59;;;;;;;28.98;14.60;;;5.70;99.90;;;;;;4960675;28;20031;-67
2023/02/23 06:34:25;;;;;;;25.15;13.63;;;5.70;99.90;;;;;;4957373;28;20031;-68
2023/02/23 06:36:50;;;;;;;27.58;13.43;;;5.70;99.90;;;;;;4957591;28;20055;-68
2023/02/23 06:39:16;;;;;;;30.33;14.63;;;5.70;99.90;;;;;;4951965;28;20042;-68
2023/02/23 06:41:41;;;;;;;23.63;13.95;;;5.70;99.90;;;;;;4953568;28;20062;-67
2023/02/23 06:44:07;;;;;;;25.23;13.52;;;5.70;99.90;;;;;;4953310;28;20082;-67
2023/02/23 06:46:34;;;;;;;22.27;12.98;;;5.70;99.90;;;;;;4952674;28;20022;-68
2023/02/23 06:49:00;;;;;;;30.58;14.80;;;5.70;99.90;;;;;;4968100;28;20034;-69
2023/02/23 06:51:25;;;;;;;30.38;15.30;;;5.70;99.90;;;;;;4972931;28;20027;-67
2023/02/23 06:53:52;;;;;;;27.63;15.13;;;5.80;99.90;;;;;;4947608;28;20043;-66
2023/02/23 06:56:18;;;;;;;28.23;15.13;;;5.80;99.90;;;;;;4972900;28;20031;-67
2023/02/23 06:58:44;;;;;;;29.17;14.55;;;5.80;99.90;;;;;;4967087;28;20395;-65
2023/02/23 07:01:11;;;;;;;27.15;14.30;;;5.80;99.90;;;;;;4956676;28;20086;-66
2023/02/23 07:03:37;;;;;;;27.08;14.93;;;5.80;99.90;;;;;;4970215;28;20118;-67
2023/02/23 07:06:04;;;;;;;28.13;14.18;;;5.90;99.90;;;;;;4959285;28;20185;-67
2023/02/23 07:08:30;;;;;;;30.00;15.57;;;5.90;99.90;;;;;;4966502;28;20546;-67
2023/02/23 07:11:03;;;;;;;26.38;15.35;;;5.90;99.90;;;;;;4962121;28;20031;-68
2023/02/23 07:13:28;;;;;;;23.48;13.75;;;6.00;99.90;;;;;;4970159;28;20029;-68
2023/02/23 07:15:56;;;;;;;29.02;15.85;;;6.00;99.90;;;;;;4961133;28;20026;-67
2023/02/23 07:18:21;;;;;;;26.52;14.20;;;6.10;99.90;;;;;;4971564;28;20035;-68
2023/02/23 07:20:50;;;;;;;26.63;14.25;;;6.10;99.90;;;;;;4968556;28;20045;-68
2023/02/23 07:23:16;;;;;;;28.17;14.52;;;6.20;99.90;;;;;;4972569;28;20498;-67
2023/02/23 07:25:42;;;;;;;26.00;14.60;;;6.20;99.90;;;;;;4970605;28;20042;-68
2023/02/23 07:28:07;;;;;;;22.67;14.45;;;6.20;99.90;;;;;;4969636;28;20113;-67
2023/02/23 07:30:33;;;;;;;30.25;15.50;;;6.20;99.90;;;;;;4961610;28;20035;-67
2023/02/23 07:32:59;;;;;;;27.73;14.38;;;6.30;99.90;;;;;;4955996;28;20085;-68
2023/02/23 07:35:24;;;;;;;21.40;14.27;;;6.40;99.90;;;;;;4958825;28;20030;-67
2023/02/23 07:37:50;;;;;;;24.80;13.90;;;6.50;99.90;;;;;;4965243;28;20030;-67
2023/02/23 07:40:17;;;;;;;29.77;15.13;;;6.50;99.90;;;;;;4948138;28;20033;-67
2023/02/23 07:42:43;;;;;;;25.52;14.90;;;6.50;99.90;;;;;;4956160;28;20030;-67
2023/02/23 07:45:09;;;;;;;32.30;15.82;;;6.60;99.90;;;;;;4969824;28;20034;-68
2023/02/23 07:47:36;;;;;;;24.77;14.57;;;6.70;99.90;;;;;;4974569;28;20031;-67
2023/02/23 07:50:08;;;;;;;25.88;14.23;;;6.70;99.90;;;;;;4972496;28;20041;-68
2023/02/23 07:52:35;;;;;;;29.25;15.65;;;6.80;99.90;;;;;;4974313;28;20062;-68
2023/02/23 07:55:00;;;;;;;26.80;14.60;;;6.80;99.90;;;;;;4966903;28;20511;-67
2023/02/23 07:57:26;;;;;;;28.63;14.48;;;6.90;99.90;;;;;;4961268;28;20449;-66
2023/02/23 07:59:51;;;;;;;27.67;15.52;;;6.90;99.90;;;;;;4964463;28;20055;-66
2023/02/23 08:02:17;;;;;;;25.38;15.30;;;7.00;99.90;;;;;;4966219;28;20435;-67
2023/02/23 08:04:43;;;;;;;26.75;14.43;;;7.00;99.90;;;;;;4957603;28;20446;-66
2023/02/23 08:07:09;;;;;;;25.00;15.27;;;7.00;99.80;;;;;;4956931;28;20022;-65
2023/02/23 08:09:35;;;;;;;30.60;15.35;;;7.00;99.80;;;;;;4971384;28;20611;-66
2023/02/23 08:12:02;;;;;;;27.38;14.13;;;7.10;99.90;;;;;;4965366;28;20483;-66
2023/02/23 08:14:27;;;;;;;24.20;14.85;;;7.10;99.70;;;;;;4967331;28;20038;-66
2023/02/23 08:16:53;;;;;;;30.95;15.80;;;7.20;99.70;;;;;;4965249;28;20027;-67
2023/02/23 08:19:22;;;;;;;23.13;14.45;;;7.20;99.70;;;;;;4972167;28;20486;-67
2023/02/23 08:21:49;;;;;;;25.63;14.23;;;7.20;99.60;;;;;;4972105;28;20047;-67
2023/02/23 08:24:15;;;;;;;30.33;15.40;;;7.30;99.60;;;;;;4973712;28;20509;-67
2023/02/23 08:26:41;;;;;;;25.00;14.45;;;7.30;99.60;;;;;;4938186;29;20046;-67
2023/02/23 08:29:07;;;;;;;30.63;16.02;;;7.40;99.60;;;;;;4967161;28;20027;-67
2023/02/23 08:31:33;;;;;;;21.65;13.40;;;7.40;99.50;;;;;;4973775;28;20482;-67
2023/02/23 08:33:58;;;;;;;25.17;14.20;;;7.40;99.50;;;;;;4966367;28;20026;-66
2023/02/23 08:36:24;;;;;;;31.70;14.23;;;7.50;99.50;;;;;;4973831;28;20540;-66
2023/02/23 08:38:50;;;;;;;23.98;13.85;;;7.50;99.50;;;;;;4968844;28;20599;-66
2023/02/23 08:41:16;;;;;;;24.08;15.45;;;7.60;99.50;;;;;;4974493;28;20525;-66
2023/02/23 08:43:42;;;;;;;26.95;14.63;;;7.50;99.40;;;;;;4969671;28;20030;-66
2023/02/23 08:46:08;;;;;;;26.65;15.02;;;7.60;99.40;;;;;;4973385;28;20042;-66
2023/02/23 08:48:35;;;;;;;23.95;15.23;;;7.60;99.40;;;;;;4966998;28;20037;-66
2023/02/23 08:51:01;;;;;;;26.67;15.50;;;7.60;99.40;;;;;;4973961;28;20081;-67
2023/02/23 08:53:28;;;;;;;26.58;14.93;;;7.70;99.40;;;;;;4970258;28;20043;-67
2023/02/23 08:55:59;;;;;;;25.45;15.15;;;7.70;99.40;;;;;;4962099;28;20140;-67
2023/02/23 08:58:25;;;;;;;28.88;14.85;;;7.80;99.40;;;;;;4964220;28;20118;-68
2023/02/23 09:00:51;;;;;;;28.02;16.10;;;7.80;99.30;;;;;;4972874;28;20214;-66
2023/02/23 09:03:18;;;;;;;26.17;15.60;;;7.90;99.30;;;;;;4969585;28;20029;-65
2023/02/23 09:05:44;;;;;;;23.48;14.77;;;7.90;99.30;;;;;;4971683;28;20106;-68
2023/02/23 09:08:11;;;;;;;28.10;15.68;;;7.90;99.30;;;;;;4970207;28;20547;-68
2023/02/23 09:10:37;;;;;;;25.02;14.73;;;7.90;99.20;;;;;;4972985;28;20118;-68
2023/02/23 09:13:02;;;;;;;24.27;15.75;;;8.00;99.20;;;;;;4957863;28;20123;-68
2023/02/23 09:15:28;;;;;;;29.55;15.15;;;8.00;99.20;;;;;;4944320;28;20387;-67
2023/02/23 09:17:53;;;;;;;24.80;14.13;;;8.10;99.40;;;;;;4961204;28;20027;-68
2023/02/23 09:20:19;;;;;;;25.67;16.48;;;8.10;99.30;;;;;;4938986;28;20043;-68
2023/02/23 09:22:48;;;;;;;23.85;14.38;;;8.20;99.20;;;;;;4963986;28;20069;-68
2023/02/23 09:25:17;;;;;;;30.70;15.55;;;8.20;99.20;;;;;;4960488;28;20050;-67
2023/02/23 09:27:43;;;;;;;25.55;15.10;;;8.30;99.20;;;;;;4968937;28;20026;-68
2023/02/23 09:30:09;;;;;;;25.13;15.32;;;8.30;99.20;;;;;;4964496;28;20510;-68
2023/02/23 09:32:36;;;;;;;24.98;16.00;;;8.40;99.20;;;;;;4969753;28;20037;-68
2023/02/23 09:35:01;;;;;;;29.02;16.48;;;8.40;99.10;;;;;;4967896;28;20116;-68
2023/02/23 09:37:27;;;;;;;28.25;15.98;;;8.50;99.10;;;;;;4966940;28;20478;-68
2023/02/23 09:39:52;;;;;;;28.17;15.57;;;8.60;99.10;;;;;;4966801;28;20110;-67
2023/02/23 09:42:39;;;;;;;26.90;15.45;;;8.70;99.10;;;;;;4958045;28;20047;-67
2023/02/23 09:45:36;;;;;;;31.02;15.50;;;8.80;99.10;;;;;;4962979;28;20078;-68
2023/02/23 09:48:18;;;;;;;23.75;15.55;;;8.80;99.00;;;;;;4950511;28;20117;-68
2023/02/23 09:50:48;;;;;;;24.58;14.35;;;8.90;99.10;;;;;;4970218;28;20109;-68
2023/02/23 09:53:20;;;;;;;25.50;14.70;;;9.00;99.30;;;;;;4964165;28;20047;-68
2023/02/23 09:55:47;;;;;;;24.10;15.07;;;9.00;99.10;;;;;;4969624;28;20034;-68
2023/02/23 09:58:33;;;;;;;25.73;15.23;;;9.10;99.10;;;;;;4965484;28;20089;-68
2023/02/23 10:01:09;;;;;;;30.10;14.70;;;9.20;99.00;;;;;;4970244;28;20049;-68
2023/02/23 10:03:39;;;;;;;25.40;14.27;;;9.20;99.00;;;;;;4969964;28;20034;-68
2023/02/23 10:06:13;;;;;;;23.10;15.65;;;9.40;99.00;;;;;;4959916;28;20035;-68
2023/02/23 10:08:49;;;;;;;25.75;14.98;;;9.50;99.00;;;;;;4955599;28;20027;-68
2023/02/23 10:11:27;;;;;;;27.65;14.40;;;9.60;99.00;;;;;;4958878;28;20506;-68
2023/02/23 10:14:15;;;;;;;23.50;14.35;;;9.70;98.90;;;;;;4944134;28;20031;-68
2023/02/23 10:17:04;;;;;;;22.52;15.23;;;9.80;98.90;;;;;;4963381;28;20187;-67
2023/02/23 10:19:49;;;;;;;28.77;15.52;;;9.90;98.80;;;;;;4966454;28;20039;-69
2023/02/23 10:22:15;;;;;;;27.10;15.77;;;10.00;98.80;;;;;;4964633;28;20031;-68
2023/02/23 10:24:43;;;;;;;28.80;15.23;;;10.10;98.80;;;;;;4963286;28;20042;-67
2023/02/23 10:27:17;;;;;;;24.23;13.90;;;10.20;98.70;;;;;;4952426;28;20027;-68
2023/02/23 10:29:55;;;;;;;23.92;15.98;;;10.20;98.60;;;;;;4955437;28;20069;-67
2023/02/23 10:32:37;;;;;;;23.73;15.52;;;10.40;98.50;;;;;;4967965;28;20533;-68
2023/02/23 10:35:13;;;;;;;27.40;14.57;;;10.50;98.50;;;;;;4968036;28;20496;-67
2023/02/23 10:37:38;;;;;;;23.50;15.15;;;10.50;98.40;;;;;;4964794;28;20031;-68
2023/02/23 10:40:06;;;;;;;24.48;15.18;;;10.60;98.40;;;;;;4967578;28;20034;-68
2023/02/23 10:42:32;;;;;;;24.30;14.93;;;10.60;98.40;;;;;;4970112;28;20296;-67
2023/02/23 10:44:58;;;;;;;28.05;15.40;;;10.80;98.60;;;;;;4967260;28;20105;-68
2023/02/23 10:47:28;;;;;;;26.63;15.48;;;10.80;98.40;;;;;;4960575;28;20550;-67
2023/02/23 10:49:55;;;;;;;24.60;14.55;;;10.90;98.60;;;;;;4967741;28;20053;-65
2023/02/23 10:52:39;;;;;;;23.77;15.10;;;10.90;98.40;;;;;;4970507;28;20027;-64
2023/02/23 10:55:06;;;;;;;24.48;15.13;;;11.10;98.40;;;;;;4965928;28;20129;-65
2023/02/23 10:57:36;;;;;;;25.50;15.18;;;11.10;98.30;;;;;;4970628;28;20058;-65
2023/02/23 11:00:25;;;;;;;26.75;15.50;;;11.20;98.30;;;;;;4958066;28;20089;-64
2023/02/23 11:02:52;;;;;;;26.50;16.15;;;11.30;98.30;;;;;;4970918;28;20039;-65
2023/02/23 11:05:44;;;;;;;23.38;15.70;;;11.30;98.30;;;;;;4938361;28;20027;-65
2023/02/23 11:08:28;;;;;;;24.15;14.77;;;11.40;98.20;;;;;;4968185;28;20047;-65
2023/02/23 11:11:14;;;;;;;24.58;15.20;;;11.50;98.20;;;;;;4973804;28;20031;-64
2023/02/23 11:13:46;;;;;;;23.92;15.65;;;11.50;98.10;;;;;;4956355;28;20526;-64
2023/02/23 11:16:22;;;;;;;22.42;15.60;;;11.50;98.10;;;;;;4968505;28;20371;-65
2023/02/23 11:19:06;;;;;;;31.35;16.85;;;11.60;98.10;;;;;;4968014;28;20514;-65
2023/02/23 11:21:38;;;;;;;26.20;17.20;;;11.70;98.00;;;;;;4941154;28;20640;-64
2023/02/23 11:24:26;;;;;;;24.48;16.73;;;11.70;97.90;;;;;;4958082;28;20077;-65
2023/02/23 11:26:56;;;;;;;22.85;15.13;;;11.80;97.90;;;;;;4974274;28;20123;-64
2023/02/23 11:29:42;;;;;;;25.63;16.45;;;11.90;97.90;;;;;;4964836;28;20062;-64
2023/02/23 11:32:15;;;;;;;30.67;17.15;;;11.90;97.80;;;;;;4968342;28;20050;-64
2023/02/23 11:34:42;;;;;;;28.13;15.35;;;12.10;97.80;;;;;;4966822;28;20114;-64
2023/02/23 11:37:25;;;;;;;24.58;16.10;;;12.10;97.80;;;;;;4973617;28;20038;-65
2023/02/23 11:39:57;;;;;;;22.90;14.68;;;12.20;97.80;;;;;;4958742;28;20027;-64
2023/02/23 11:42:32;;;;;;;28.85;16.60;;;12.20;97.80;;;;;;4956051;28;20047;-65
2023/02/23 11:45:14;;;;;;;25.20;15.52;;;12.30;97.70;;;;;;4960304;28;20023;-64
2023/02/23 11:47:44;;;;;;;27.05;16.95;;;12.40;97.60;;;;;;4961564;28;20170;-65
2023/02/23 11:50:25;;;;;;;26.20;16.40;;;12.50;97.60;;;;;;4972317;28;20118;-65
2023/02/23 11:53:13;;;;;;;27.15;17.33;;;12.50;97.50;;;;;;4975243;28;20049;-65
2023/02/23 11:55:39;;;;;;;26.90;15.07;;;12.60;97.50;;;;;;4959204;28;20027;-65
2023/02/23 11:58:23;;;;;;;26.27;16.08;;;12.60;97.50;;;;;;4956582;28;20023;-64
2023/02/23 12:01:00;;;;;;;31.58;17.88;;;12.70;97.40;;;;;;4966514;28;20199;-65
2023/02/23 12:03:31;;;;;;;30.08;17.60;;;12.90;97.30;;;;;;4957276;28;20154;-64
2023/02/23 12:05:58;;;;;;;27.63;17.65;;;12.90;97.30;;;;;;4968109;28;20041;-64
2023/02/23 12:08:52;;;;;;;26.33;17.77;;;13.00;97.30;;;;;;4957367;28;20166;-63
2023/02/23 12:11:24;;;;;;;24.80;15.65;;;13.10;97.10;;;;;;4966697;28;20061;-63
2023/02/23 12:14:27;;;;;;;26.35;15.88;;;13.20;97.10;;;;;;4958435;28;20443;-68
2023/02/23 12:17:01;;;;;;;25.13;16.27;;;13.20;97.00;;;;;;4968190;28;20049;-66
2023/02/23 12:19:38;;;;;;;29.30;16.30;;;13.30;97.10;;;;;;4969391;28;20038;-66
2023/02/23 12:22:11;;;;;;;25.10;15.18;;;13.30;97.10;;;;;;4970012;28;20213;-66
2023/02/23 12:24:50;;;;;;;27.20;16.15;;;13.40;97.00;;;;;;4962097;28;20027;-66
2023/02/23 12:27:33;;;;;;;29.35;16.88;;;13.50;96.90;;;;;;4968383;28;20035;-66
2023/02/23 12:30:18;;;;;;;25.58;15.73;;;13.50;96.80;;;;;;4949603;28;20030;-66
2023/02/23 12:33:09;;;;;;;23.02;16.17;;;13.60;96.70;;;;;;4960819;28;20110;-67
2023/02/23 12:35:49;;;;;;;26.60;17.60;;;13.70;96.70;;;;;;4954617;28;20039;-66
2023/02/23 12:39:10;;;;;;;30.27;17.50;;;13.70;96.60;;;;;;4961854;28;20046;-66
2023/02/23 12:41:42;;;;;;;28.10;16.90;;;13.70;96.60;;;;;;4951120;28;20047;-67
2023/02/23 12:44:37;;;;;;;22.13;15.57;;;13.80;96.50;;;;;;4970629;28;20035;-67
2023/02/23 12:47:30;;;;;;;25.10;16.98;;;13.80;96.40;;;;;;4964621;28;20032;-67
2023/02/23 12:50:12;;;;;;;25.75;16.63;;;13.80;96.30;;;;;;4938601;28;20023;-67
2023/02/23 12:52:52;;;;;;;25.05;16.50;;;13.80;96.30;;;;;;4963760;28;20118;-67
2023/02/23 12:55:38;;;;;;;24.77;16.17;;;13.90;96.30;;;;;;4968214;28;20031;-66
2023/02/23 12:58:20;;;;;;;25.92;16.63;;;13.90;96.30;;;;;;4938730;28;20081;-66
2023/02/23 13:01:04;;;;;;;27.35;17.30;;;13.90;96.30;;;;;;4956610;28;20039;-66
2023/02/23 13:03:52;;;;;;;29.48;17.13;;;13.90;96.20;;;;;;4957878;28;20431;-67
2023/02/23 13:06:37;;;;;;;28.65;17.60;;;14.00;96.20;;;;;;4955445;28;20042;-66
2023/02/23 13:09:20;;;;;;;24.30;15.85;;;14.00;96.10;;;;;;4966421;28;20427;-67
2023/02/23 13:12:07;;;;;;;24.35;15.50;;;14.00;96.10;;;;;;4955789;28;20097;-66
2023/02/23 13:14:57;;;;;;;26.35;16.60;;;14.00;96.10;;;;;;4958397;28;20114;-66
2023/02/23 13:17:31;;;;;;;25.75;15.98;;;14.00;96.10;;;;;;4957525;28;20035;-67
2023/02/23 13:20:23;;;;;;;24.13;16.15;;;13.90;96.10;;;;;;4956905;28;20039;-67
2023/02/23 13:22:59;;;;;;;23.17;16.20;;;13.90;96.10;;;;;;4954214;28;20483;-66
2023/02/23 13:25:35;;;;;;;23.45;15.98;;;13.90;96.10;;;;;;4950960;28;20085;-66
2023/02/23 13:28:02;;;;;;;27.50;16.65;;;14.00;96.20;;;;;;4962538;28;20030;-65
2023/02/23 13:30:31;;;;;;;23.40;16.90;;;14.00;96.20;;;;;;4962523;28;20031;-66
2023/02/23 13:33:01;;;;;;;25.10;16.20;;;14.00;96.10;;;;;;4961361;28;20050;-66
2023/02/23 13:35:34;;;;;;;24.88;16.52;;;14.10;96.20;;;;;;4972819;28;20038;-66
2023/02/23 13:38:26;;;;;;;23.08;16.88;;;14.10;96.10;;;;;;4962284;28;20042;-66
2023/02/23 13:41:09;;;;;;;25.20;16.45;;;14.10;96.00;;;;;;4956878;28;20046;-66
2023/02/23 13:43:53;;;;;;;22.90;17.10;;;14.10;96.00;;;;;;4962488;28;20023;-66
2023/02/23 13:46:44;;;;;;;22.80;16.17;;;14.10;95.90;;;;;;4960765;28;20529;-66
2023/02/23 13:49:30;;;;;;;23.75;15.48;;;14.10;95.90;;;;;;4966785;28;20370;-67
2023/02/23 13:52:12;;;;;;;24.27;16.50;;;14.10;95.90;;;;;;4964780;28;20398;-66
2023/02/23 13:54:56;;;;;;;25.17;16.80;;;14.10;95.90;;;;;;4960251;28;20138;-68
2023/02/23 13:57:23;;;;;;;26.88;16.95;;;14.00;95.90;;;;;;4966360;28;20031;-69
2023/02/23 13:59:49;;;;;;;23.95;16.35;;;14.00;96.00;;;;;;4957808;28;20027;-67
2023/02/23 14:02:27;;;;;;;26.95;17.20;;;14.00;96.00;;;;;;4970031;28;20070;-67
2023/02/23 14:05:00;;;;;;;25.85;17.15;;;13.90;96.00;;;;;;4959710;28;20034;-68
2023/02/23 14:07:31;;;;;;;22.25;15.50;;;13.90;96.00;;;;;;4953915;28;20065;-68
2023/02/23 14:10:24;;;;;;;22.48;16.13;;;13.90;96.00;;;;;;4936457;28;20050;-69
2023/02/23 14:13:14;;;;;;;25.77;17.63;;;13.90;96.00;;;;;;4972333;28;20130;-72
2023/02/23 14:15:44;;;;;;;24.52;16.63;;;13.80;96.10;;;;;;4961063;28;20042;-73